Time;durP1;ratioP1;P1;durP2;ratioP2;P2;SDS_P1;SDS_P2;PMS_P1;PMS_P2;Temp;Humidity;BMP_temperature;BMP_pressure;BME280_temperature;BME280_humidity;BME280_pressure;Samples;Min_cycle;Max_cycle;Signal;HPM_P1;HPM_P2
2021/10/27 00:01:23;;;;;;;6.83;6.20;;;;;;;;;;5111866;28;21718;-61
2021/10/27 00:03:49;;;;;;;9.53;6.37;;;9.70;1.00;;;;;;5111291;28;20186;-59
2021/10/27 00:06:15;;;;;;;10.93;7.60;;;;;;;;;;5113046;28;20440;-59
2021/10/27 00:08:40;;;;;;;7.47;6.63;;;9.70;1.00;;;;;;5111947;28;20251;-59
2021/10/27 00:11:06;;;;;;;9.27;7.00;;;9.50;1.00;;;;;;5113423;28;20444;-59
2021/10/27 00:13:32;;;;;;;12.20;6.70;;;9.70;1.00;;;;;;5110846;28;20190;-58
2021/10/27 00:15:58;;;;;;;9.27;7.97;;;;;;;;;;5107223;28;20796;-58
2021/10/27 00:18:24;;;;;;;8.00;6.30;;;9.60;1.00;;;;;;5101614;28;20562;-60
2021/10/27 00:20:50;;;;;;;9.03;7.23;;;;;;;;;;5092707;28;20455;-58
2021/10/27 00:23:16;;;;;;;7.23;6.30;;;9.40;1.00;;;;;;5098770;28;20512;-60
2021/10/27 00:25:42;;;;;;;10.40;6.47;;;;;;;;;;5101826;28;20452;-59
2021/10/27 00:28:08;;;;;;;12.33;7.30;;;;;;;;;;5110119;28;20194;-59
2021/10/27 00:30:34;;;;;;;7.10;6.27;;;;;;;;;;5112831;28;20476;-59
2021/10/27 00:33:00;;;;;;;8.03;6.63;;;;;;;;;;5102902;28;20483;-59
2021/10/27 00:35:27;;;;;;;7.10;6.40;;;;;;;;;;5100748;28;20512;-58
2021/10/27 00:37:53;;;;;;;8.33;6.37;;;;;;;;;;5107620;28;21002;-60
2021/10/27 00:40:19;;;;;;;7.57;5.63;;;;;;;;;;5108345;28;20468;-59
2021/10/27 00:42:44;;;;;;;7.57;6.67;;;9.70;1.00;;;;;;5093214;28;20432;-59
2021/10/27 00:45:10;;;;;;;6.97;6.23;;;;;;;;;;5097752;28;20419;-61
2021/10/27 00:47:36;;;;;;;8.90;6.67;;;;;;;;;;5109614;28;20227;-58
2021/10/27 00:50:02;;;;;;;7.03;6.33;;;9.40;1.00;;;;;;5100340;28;20449;-59
2021/10/27 00:52:28;;;;;;;11.10;7.50;;;;;;;;;;5101888;28;20418;-59
2021/10/27 00:54:54;;;;;;;8.87;7.07;;;9.30;1.00;;;;;;5108553;28;20531;-59
2021/10/27 00:57:23;;;;;;;10.03;7.40;;;9.50;1.00;;;;;;5100218;28;20638;-60
2021/10/27 00:59:49;;;;;;;6.93;6.03;;;9.30;1.00;;;;;;5110319;28;20293;-60
2021/10/27 01:02:16;;;;;;;7.20;6.43;;;9.20;1.00;;;;;;5105675;28;21332;-60
2021/10/27 01:04:42;;;;;;;6.73;5.87;;;;;;;;;;5108457;28;20178;-59
2021/10/27 01:07:08;;;;;;;8.10;6.90;;;9.40;1.00;;;;;;5096805;28;20463;-59
2021/10/27 01:09:36;;;;;;;8.27;6.47;;;9.10;1.00;;;;;;5094666;28;20901;-59
2021/10/27 01:12:03;;;;;;;6.63;6.00;;;9.10;1.00;;;;;;5111689;28;20936;-60
2021/10/27 01:14:43;;;;;;;8.90;7.03;;;8.80;1.00;;;;;;5109300;28;20471;-59
2021/10/27 01:17:11;;;;;;;8.47;7.07;;;9.00;1.00;;;;;;5097648;28;20480;-59
2021/10/27 01:19:55;;;;;;;8.03;7.23;;;9.20;1.00;;;;;;5098643;28;20511;-59
2021/10/27 01:22:25;;;;;;;8.03;6.70;;;8.90;1.00;;;;;;5100505;28;20475;-59
2021/10/27 01:24:53;;;;;;;6.70;6.10;;;8.90;1.00;;;;;;5111770;28;20865;-60
2021/10/27 01:27:19;;;;;;;8.87;7.27;;;8.70;1.00;;;;;;5109551;28;20441;-60
2021/10/27 01:29:44;;;;;;;8.60;7.70;;;8.70;1.00;;;;;;5097901;28;20933;-60
2021/10/27 01:32:19;;;;;;;8.37;7.27;;;8.60;1.00;;;;;;5096901;28;20187;-58
2021/10/27 01:34:44;;;;;;;9.97;7.10;;;9.20;1.00;;;;;;5107180;28;20281;-59
2021/10/27 01:37:10;;;;;;;8.93;8.03;;;8.80;1.00;;;;;;5107903;28;20539;-59
2021/10/27 01:39:36;;;;;;;9.23;8.20;;;;;;;;;;5109805;28;20198;-58
2021/10/27 01:42:02;;;;;;;11.30;8.07;;;8.90;1.00;;;;;;5106709;28;20456;-59
2021/10/27 01:44:28;;;;;;;9.00;8.10;;;;;;;;;;5106477;28;20448;-59
2021/10/27 01:46:54;;;;;;;10.60;8.50;;;;;;;;;;5081323;28;20490;-58
2021/10/27 01:49:20;;;;;;;7.53;6.83;;;9.00;1.00;;;;;;5111179;28;20796;-59
2021/10/27 01:51:47;;;;;;;15.80;8.60;;;8.80;1.00;;;;;;5101986;28;20508;-59
2021/10/27 01:54:12;;;;;;;9.47;8.47;;;8.80;1.00;;;;;;5103883;28;20282;-60
2021/10/27 01:56:38;;;;;;;9.77;7.90;;;8.80;1.00;;;;;;5104813;28;20578;-59
2021/10/27 01:59:04;;;;;;;10.60;8.80;;;;;;;;;;5103240;28;20647;-60
2021/10/27 02:01:30;;;;;;;10.73;9.03;;;;;;;;;;5108581;28;20189;-59
2021/10/27 02:03:56;;;;;;;11.83;9.47;;;;;;;;;;5109065;28;20783;-60
2021/10/27 02:06:22;;;;;;;11.67;8.87;;;;;;;;;;5105482;28;20540;-59
2021/10/27 02:08:48;;;;;;;11.93;8.50;;;;;;;;;;5112076;28;20511;-59
2021/10/27 02:11:14;;;;;;;12.90;9.10;;;;;;;;;;5103148;28;20540;-58
2021/10/27 02:13:40;;;;;;;9.97;8.63;;;;;;;;;;5110338;28;20484;-59
2021/10/27 02:16:06;;;;;;;11.20;10.07;;;;;;;;;;5107028;28;20444;-59
2021/10/27 02:18:32;;;;;;;12.70;10.03;;;;;;;;;;5097205;28;21224;-59
2021/10/27 02:20:58;;;;;;;10.93;8.63;;;;;;;;;;5102427;28;20473;-60
2021/10/27 02:23:24;;;;;;;12.37;9.90;;;;;;;;;;5093535;28;20415;-60
2021/10/27 02:25:50;;;;;;;15.90;10.13;;;;;;;;;;5106193;28;20466;-59
2021/10/27 02:28:15;;;;;;;11.73;10.53;;;8.80;1.00;;;;;;5080716;28;20436;-59
2021/10/27 02:30:41;;;;;;;15.83;11.73;;;;;;;;;;5099959;28;20441;-60
2021/10/27 02:33:08;;;;;;;15.70;11.80;;;8.60;1.00;;;;;;5096619;28;20631;-59
2021/10/27 02:35:34;;;;;;;14.93;11.20;;;;;;;;;;5099410;28;20484;-59
2021/10/27 02:38:00;;;;;;;12.30;9.87;;;;;;;;;;5101800;28;21008;-59
2021/10/27 02:40:26;;;;;;;14.50;10.43;;;;;;;;;;5107509;28;20554;-59
2021/10/27 02:42:52;;;;;;;12.20;10.57;;;;;;;;;;5095132;28;20445;-60
2021/10/27 02:45:18;;;;;;;12.80;11.07;;;;;;;;;;5102193;28;20950;-59
2021/10/27 02:47:46;;;;;;;17.93;10.90;;;;;;;;;;5102548;28;20472;-59
2021/10/27 02:50:14;;;;;;;13.30;11.60;;;8.30;1.00;;;;;;5108297;28;20492;-58
2021/10/27 02:52:44;;;;;;;12.57;11.20;;;8.40;1.00;;;;;;5100757;28;20825;-59
2021/10/27 02:55:10;;;;;;;17.53;12.60;;;;;;;;;;5109748;28;20447;-60
2021/10/27 02:57:36;;;;;;;15.80;11.90;;;8.20;1.00;;;;;;5096034;28;20458;-58
2021/10/27 03:00:04;;;;;;;13.77;12.37;;;8.40;1.00;;;;;;5102697;28;20447;-58
2021/10/27 03:02:30;;;;;;;18.50;12.07;;;;;;;;;;5088145;28;20235;-59
2021/10/27 03:04:56;;;;;;;13.30;11.87;;;;;;;;;;5105071;28;20827;-59
2021/10/27 03:07:22;;;;;;;12.80;11.10;;;;;;;;;;5104732;28;20792;-58
2021/10/27 03:09:48;;;;;;;16.90;13.00;;;;;;;;;;5100490;28;20547;-58
2021/10/27 03:12:14;;;;;;;14.80;11.93;;;;;;;;;;5108580;28;20452;-59
2021/10/27 03:14:40;;;;;;;15.23;12.10;;;8.10;1.00;;;;;;5110023;28;20443;-59
2021/10/27 03:17:06;;;;;;;17.70;12.37;;;8.30;1.00;;;;;;5104244;28;20512;-58
2021/10/27 03:19:32;;;;;;;21.03;13.30;;;8.30;1.00;;;;;;5107590;28;20446;-59
2021/10/27 03:21:58;;;;;;;15.17;12.40;;;;;;;;;;5100858;28;20187;-60
2021/10/27 03:24:23;;;;;;;14.73;12.53;;;8.30;1.00;;;;;;5096875;28;20175;-59
2021/10/27 03:26:49;;;;;;;19.90;12.70;;;8.30;1.00;;;;;;5094473;28;20525;-59
2021/10/27 03:29:14;;;;;;;18.67;13.93;;;8.20;1.00;;;;;;5096348;28;20661;-59
2021/10/27 03:31:40;;;;;;;18.00;14.97;;;;;;;;;;5094014;28;20639;-60
2021/10/27 03:34:06;;;;;;;22.60;15.60;;;;;;;;;;5102490;28;20194;-60
2021/10/27 03:36:32;;;;;;;20.87;15.60;;;;;;;;;;5104925;28;20936;-59
2021/10/27 03:38:58;;;;;;;18.77;14.73;;;;;;;;;;5108163;28;20513;-59
2021/10/27 03:41:24;;;;;;;18.67;13.90;;;;;;;;;;5106525;28;20885;-59
2021/10/27 03:43:50;;;;;;;20.40;15.17;;;;;;;;;;5095434;28;20975;-60
2021/10/27 03:46:16;;;;;;;20.10;15.60;;;;;;;;;;5099179;28;20534;-59
2021/10/27 03:48:42;;;;;;;21.30;14.47;;;8.10;1.00;;;;;;5108650;28;20476;-59
2021/10/27 03:51:12;;;;;;;20.80;16.70;;;8.20;1.00;;;;;;5106682;28;20419;-58
2021/10/27 03:53:38;;;;;;;21.70;15.03;;;;;;;;;;5110186;28;20432;-59
2021/10/27 03:56:04;;;;;;;21.27;14.77;;;8.00;1.00;;;;;;5101894;28;20450;-58
2021/10/27 03:58:33;;;;;;;18.00;13.10;;;;;;;;;;5098789;28;20444;-59
2021/10/27 04:01:00;;;;;;;20.73;14.73;;;8.00;1.00;;;;;;5106430;28;20873;-60
2021/10/27 04:03:26;;;;;;;19.07;13.43;;;7.90;1.00;;;;;;5094237;28;20432;-62
2021/10/27 04:05:52;;;;;;;17.83;14.53;;;;;;;;;;5093721;28;20870;-61
2021/10/27 04:08:18;;;;;;;19.13;14.37;;;7.90;1.00;;;;;;5109584;28;20191;-62
2021/10/27 04:10:47;;;;;;;21.77;15.13;;;8.00;1.00;;;;;;5104053;28;20843;-64
2021/10/27 04:13:18;;;;;;;22.23;16.60;;;8.10;1.00;;;;;;5097015;28;20782;-62
2021/10/27 04:15:44;;;;;;;20.37;14.57;;;8.20;1.00;;;;;;5106032;28;20499;-62
2021/10/27 04:18:10;;;;;;;23.43;15.60;;;7.80;1.00;;;;;;5093302;28;20884;-63
2021/10/27 04:20:36;;;;;;;19.00;13.90;;;;;;;;;;5090437;28;20965;-62
2021/10/27 04:23:03;;;;;;;21.23;15.07;;;;;;;;;;5106080;28;20500;-61
2021/10/27 04:25:29;;;;;;;22.97;16.60;;;;;;;;;;5102978;28;20440;-62
2021/10/27 04:27:55;;;;;;;22.03;15.80;;;;;;;;;;5093074;28;20494;-62
2021/10/27 04:30:20;;;;;;;21.90;16.30;;;8.00;1.00;;;;;;5074910;28;20942;-61
2021/10/27 04:32:46;;;;;;;25.33;16.50;;;8.10;1.00;;;;;;5096406;28;20437;-62
2021/10/27 04:35:12;;;;;;;23.20;16.57;;;;;;;;;;5095205;28;20281;-62
2021/10/27 04:37:42;;;;;;;24.27;17.47;;;7.90;1.00;;;;;;5095367;28;20543;-62
2021/10/27 04:40:10;;;;;;;23.80;17.67;;;8.00;1.00;;;;;;5113281;28;20596;-60
2021/10/27 04:42:37;;;;;;;24.13;17.33;;;7.80;1.00;;;;;;5104894;28;20527;-58
2021/10/27 04:45:04;;;;;;;26.37;18.70;;;8.00;1.00;;;;;;5105907;28;20475;-59
2021/10/27 04:47:30;;;;;;;22.20;16.40;;;8.00;1.00;;;;;;5098404;28;20443;-59
2021/10/27 04:49:55;;;;;;;23.27;18.03;;;8.00;1.00;;;;;;5087759;28;20432;-59
2021/10/27 04:52:21;;;;;;;27.73;16.93;;;8.00;1.00;;;;;;5111843;28;20182;-60
2021/10/27 04:54:46;;;;;;;22.07;17.53;;;8.00;1.00;;;;;;5104648;28;20183;-59
2021/10/27 04:57:12;;;;;;;24.57;16.80;;;;;;;;;;5107243;28;20187;-59
2021/10/27 04:59:44;;;;;;;23.67;18.53;;;;;;;;;;5110953;28;20637;-60
2021/10/27 05:02:13;;;;;;;26.13;17.30;;;8.20;1.00;;;;;;5109139;28;20433;-59
2021/10/27 05:04:38;;;;;;;26.90;18.00;;;8.20;1.00;;;;;;5105960;28;20922;-60
2021/10/27 05:07:05;;;;;;;24.03;16.90;;;;;;;;;;5098153;28;20496;-60
2021/10/27 05:09:31;;;;;;;26.53;17.80;;;8.00;1.00;;;;;;5093275;28;20261;-59
2021/10/27 05:11:58;;;;;;;24.77;19.20;;;;;;;;;;5099518;28;20515;-60
2021/10/27 05:14:24;;;;;;;24.70;18.20;;;;;;;;;;5112252;28;20444;-58
2021/10/27 05:16:50;;;;;;;21.27;15.40;;;;;;;;;;5082468;28;20453;-61
2021/10/27 05:19:16;;;;;;;24.20;17.77;;;;;;;;;;5106237;28;20867;-59
2021/10/27 05:21:42;;;;;;;21.90;16.20;;;;;;;;;;5100480;28;20479;-59
2021/10/27 05:24:08;;;;;;;22.83;16.37;;;7.90;1.00;;;;;;5112889;28;20473;-60
2021/10/27 05:26:34;;;;;;;24.13;17.67;;;;;;;;;;5099351;28;20441;-58
2021/10/27 05:29:00;;;;;;;22.20;18.27;;;8.30;1.00;;;;;;5108755;28;20514;-59
2021/10/27 05:31:25;;;;;;;25.30;17.63;;;;;;;;;;5104650;28;20468;-61
2021/10/27 05:33:52;;;;;;;24.83;18.33;;;;;;;;;;5107327;28;20184;-60
2021/10/27 05:36:18;;;;;;;32.53;17.70;;;;;;;;;;5098434;28;20443;-60
2021/10/27 05:38:44;;;;;;;27.60;17.63;;;8.60;1.00;;;;;;5111856;28;20531;-59
2021/10/27 05:41:10;;;;;;;24.57;20.33;;;7.80;1.00;;;;;;5112815;28;20528;-59
2021/10/27 05:43:36;;;;;;;24.70;18.83;;;;;;;;;;5111756;28;20519;-59
2021/10/27 05:46:03;;;;;;;24.00;18.30;;;;;;;;;;5109529;28;20193;-60
2021/10/27 05:48:34;;;;;;;23.20;17.17;;;;;;;;;;5112014;28;20482;-59
2021/10/27 05:56:19;;;;;;;33.73;19.30;;;8.70;1.00;;;;;;5093576;28;20432;-58
2021/10/27 05:58:45;;;;;;;25.03;17.73;;;8.20;1.00;;;;;;5092260;28;20425;-59
2021/10/27 06:01:10;;;;;;;23.27;17.37;;;8.00;1.00;;;;;;5100539;28;20476;-60
2021/10/27 06:03:37;;;;;;;26.87;16.93;;;7.90;1.00;;;;;;5091935;28;20852;-59
2021/10/27 06:06:02;;;;;;;23.67;16.27;;;8.00;1.00;;;;;;5106086;28;20175;-60
2021/10/27 06:08:28;;;;;;;21.90;17.07;;;8.00;1.00;;;;;;5092531;28;20968;-60
2021/10/27 06:10:58;;;;;;;23.30;16.87;;;;;;;;;;5094272;28;20179;-60
2021/10/27 06:13:31;;;;;;;24.20;17.53;;;;;;;;;;5091842;28;20190;-59
2021/10/27 06:15:57;;;;;;;21.77;16.90;;;7.70;1.00;;;;;;5110490;28;20428;-58
2021/10/27 06:18:22;;;;;;;25.83;18.00;;;8.20;1.00;;;;;;5112128;28;20448;-60
2021/10/27 06:20:48;;;;;;;26.13;16.60;;;8.20;1.00;;;;;;5100211;28;20460;-60
2021/10/27 06:23:14;;;;;;;26.33;15.83;;;;;;;;;;5091263;28;20256;-59
2021/10/27 06:25:40;;;;;;;23.07;17.70;;;8.20;1.00;;;;;;5107177;28;20177;-59
2021/10/27 06:28:10;;;;;;;22.43;16.13;;;;;;;;;;5111810;28;20496;-60
2021/10/27 06:30:43;;;;;;;25.27;16.77;;;8.00;1.00;;;;;;5103025;28;20437;-59
2021/10/27 06:33:22;;;;;;;25.70;16.70;;;8.30;1.00;;;;;;5092767;28;20459;-60
2021/10/27 06:36:04;;;;;;;22.03;15.60;;;;;;;;;;5110926;28;20766;-59
2021/10/27 06:48:54;;;;;;;23.90;15.97;;;8.70;1.00;;;;;;5091027;28;20433;-59
2021/10/27 06:51:20;;;;;;;21.80;15.63;;;8.80;1.00;;;;;;5084622;28;20484;-59
2021/10/27 06:53:47;;;;;;;22.80;16.00;;;8.80;1.00;;;;;;5105024;28;20175;-59
2021/10/27 06:56:13;;;;;;;22.40;16.50;;;8.80;1.00;;;;;;5096467;28;20444;-59
2021/10/27 06:58:55;;;;;;;20.97;16.00;;;8.90;1.00;;;;;;5090931;28;20441;-61
2021/10/27 07:01:29;;;;;;;20.33;16.33;;;;;;;;;;5109869;28;20452;-60
2021/10/27 07:04:26;;;;;;;19.00;14.20;;;9.10;1.00;;;;;;5094789;28;21046;-60
2021/10/27 07:06:58;;;;;;;23.67;16.27;;;9.10;1.00;;;;;;5106433;28;21021;-60
2021/10/27 07:15:18;;;;;;;23.27;16.37;;;9.20;1.00;;;;;;5103161;28;20836;-60
2021/10/27 07:17:49;;;;;;;17.77;14.10;;;9.40;1.00;;;;;;5106158;28;20447;-59
2021/10/27 07:20:15;;;;;;;20.20;14.03;;;;;;;;;;5104287;28;20514;-60
2021/10/27 07:22:41;;;;;;;22.50;16.00;;;9.50;1.00;;;;;;5094242;28;20914;-58
2021/10/27 07:25:08;;;;;;;24.27;17.03;;;9.50;1.00;;;;;;5090908;28;20424;-60
2021/10/27 07:27:34;;;;;;;20.50;15.60;;;;;;;;;;5098022;28;20175;-59
2021/10/27 07:30:00;;;;;;;18.43;14.03;;;9.70;1.00;;;;;;5090667;28;20494;-59
2021/10/27 07:32:27;;;;;;;20.30;15.33;;;9.50;1.00;;;;;;5107899;28;20480;-59
2021/10/27 07:35:14;;;;;;;21.17;14.20;;;9.70;1.00;;;;;;5110545;28;20469;-59
2021/10/27 07:40:35;;;;;;;17.97;15.00;;;;;;;;;;5110501;28;20978;-58
2021/10/27 07:43:09;;;;;;;21.20;15.40;;;10.30;1.00;;;;;;5104753;28;20446;-59
2021/10/27 07:45:36;;;;;;;21.93;14.60;;;10.50;1.00;;;;;;5105905;28;20437;-59
2021/10/27 07:48:02;;;;;;;21.07;14.43;;;10.90;1.00;;;;;;5099987;28;20855;-59
2021/10/27 07:50:29;;;;;;;21.00;13.60;;;10.80;1.00;;;;;;5103473;28;20539;-58
2021/10/27 07:53:07;;;;;;;19.20;13.47;;;10.90;1.00;;;;;;5094107;28;20181;-58
2021/10/27 07:55:33;;;;;;;16.17;14.43;;;11.10;1.00;;;;;;5099471;28;20436;-59
2021/10/27 07:58:00;;;;;;;17.73;13.30;;;11.10;1.00;;;;;;5096570;28;20557;-58
2021/10/27 08:00:27;;;;;;;18.47;13.87;;;11.10;1.00;;;;;;5090631;28;20465;-59
2021/10/27 08:02:54;;;;;;;19.20;13.77;;;;;;;;;;5090571;28;20467;-60
2021/10/27 08:05:20;;;;;;;21.73;15.40;;;;;;;;;;5098449;28;20420;-59
2021/10/27 08:07:49;;;;;;;17.50;13.27;;;11.70;1.00;;;;;;5102957;28;20466;-60
2021/10/27 08:10:17;;;;;;;18.90;13.37;;;11.70;1.00;;;;;;5097197;28;20821;-59
2021/10/27 08:12:43;;;;;;;17.73;13.20;;;11.80;1.00;;;;;;5104638;28;20436;-60
2021/10/27 08:15:10;;;;;;;18.83;13.47;;;11.90;1.00;;;;;;5099811;28;20440;-60
2021/10/27 08:17:37;;;;;;;19.90;14.40;;;12.00;1.00;;;;;;5104633;28;20463;-59
2021/10/27 08:20:05;;;;;;;19.40;14.57;;;12.20;1.00;;;;;;5077353;28;20476;-60
2021/10/27 08:22:31;;;;;;;15.30;12.87;;;12.30;1.00;;;;;;5093976;28;20465;-60
2021/10/27 08:24:59;;;;;;;16.60;13.73;;;;;;;;;;5097539;28;21034;-58
2021/10/27 08:27:24;;;;;;;14.43;12.50;;;12.50;1.00;;;;;;5095664;28;20571;-59
2021/10/27 08:29:51;;;;;;;14.30;12.83;;;;;;;;;;5075770;28;20913;-59
2021/10/27 08:34:55;;;;;;;14.27;12.73;;;;;;;;;;5111788;28;20581;-59
2021/10/27 08:37:22;;;;;;;19.63;13.47;;;;;;;;;;5113981;28;20527;-59
2021/10/27 08:39:48;;;;;;;16.93;13.03;;;;;;;;;;5113667;28;20468;-60
2021/10/27 08:42:14;;;;;;;16.13;13.50;;;13.00;1.00;;;;;;5114130;28;20932;-59
2021/10/27 08:44:44;;;;;;;21.33;11.80;;;13.00;1.00;;;;;;5113991;28;20730;-59
2021/10/27 08:47:11;;;;;;;13.40;11.37;;;12.70;1.00;;;;;;5113681;28;20891;-59
2021/10/27 08:49:37;;;;;;;16.60;11.40;;;13.10;1.00;;;;;;5113993;28;20436;-59
2021/10/27 08:52:07;;;;;;;18.87;12.30;;;13.10;1.00;;;;;;5110868;28;20452;-59
2021/10/27 08:54:33;;;;;;;14.83;11.70;;;12.80;1.00;;;;;;5093478;28;20512;-59
2021/10/27 08:57:07;;;;;;;16.30;11.83;;;12.80;1.00;;;;;;5110371;28;20448;-60
2021/10/27 08:59:55;;;;;;;16.03;12.37;;;13.50;1.00;;;;;;5092995;28;20517;-59
2021/10/27 09:02:40;;;;;;;13.73;11.43;;;13.20;1.00;;;;;;5112319;28;20488;-60
2021/10/27 09:07:56;;;;;;;15.00;12.27;;;13.10;1.00;;;;;;5109287;28;20930;-59
2021/10/27 09:14:21;;;;;;;17.33;12.37;;;13.20;1.00;;;;;;5106312;28;20420;-60
2021/10/27 09:16:24;;;;;;;12.90;10.77;;;13.10;1.00;;;;;;5114273;28;20451;-60
2021/10/27 10:04:50;;;;;;;6.93;4.40;;;15.10;1.00;;;;;;5098798;28;20575;-60
2021/10/27 10:06:48;;;;;;;3.80;2.30;;;15.30;1.00;;;;;;5079639;28;20519;-59
2021/10/27 10:09:15;;;;;;;3.70;2.50;;;15.40;1.00;;;;;;5111354;28;20444;-59
2021/10/27 10:11:41;;;;;;;5.50;2.30;;;15.40;1.00;;;;;;5112148;28;20522;-60
2021/10/27 10:14:10;;;;;;;5.17;2.00;;;15.70;1.00;;;;;;5112309;28;20838;-59
2021/10/27 10:16:41;;;;;;;3.40;2.23;;;15.40;1.00;;;;;;5111994;28;20418;-59
2021/10/27 10:19:11;;;;;;;4.10;2.03;;;15.40;1.00;;;;;;5112040;28;20440;-59
2021/10/27 10:21:40;;;;;;;1.93;1.83;;;15.60;1.00;;;;;;5100950;28;20461;-59
2021/10/27 10:24:26;;;;;;;4.30;2.30;;;15.20;1.00;;;;;;5073139;28;20419;-59
2021/10/27 10:26:54;;;;;;;1.90;1.80;;;14.60;1.00;;;;;;5091543;28;20576;-59
2021/10/27 10:29:36;;;;;;;4.73;2.60;;;15.30;1.00;;;;;;5091468;28;20438;-60
2021/10/27 10:32:27;;;;;;;2.80;2.20;;;15.30;1.00;;;;;;5090884;28;20437;-60
2021/10/27 10:35:02;;;;;;;6.90;2.13;;;15.30;1.00;;;;;;5091519;28;20420;-59
2021/10/27 10:37:28;;;;;;;3.33;2.00;;;;;;;;;;5091376;28;20443;-59
2021/10/27 10:39:55;;;;;;;5.13;2.30;;;;;;;;;;5109032;28;20516;-58
2021/10/27 10:42:52;;;;;;;2.93;2.30;;;15.50;1.00;;;;;;5111127;28;20448;-59
2021/10/27 10:57:30;;;;;;;4.23;2.93;;;15.60;1.00;;;;;;5111167;28;20459;-60
2021/10/27 11:00:37;;;;;;;2.60;2.10;;;15.50;1.00;;;;;;5110343;28;20456;-61
2021/10/27 11:26:02;;;;;;;2.37;1.90;;;16.20;1.00;;;;;;5111110;28;20753;-59
2021/10/27 11:42:23;;;;;;;4.10;2.13;;;16.50;1.00;;;;;;5072834;28;20402;-60
2021/10/27 11:44:58;;;;;;;4.73;1.70;;;16.70;1.00;;;;;;5094425;28;20425;-61
2021/10/27 11:47:42;;;;;;;3.93;1.90;;;16.90;1.00;;;;;;5094766;28;20464;-61
2021/10/27 11:50:11;;;;;;;2.80;1.30;;;16.80;1.00;;;;;;5094390;28;20510;-61
2021/10/27 11:52:41;;;;;;;2.70;1.83;;;16.80;1.00;;;;;;5108371;28;21104;-62
2021/10/27 11:55:09;;;;;;;2.13;1.50;;;16.60;1.00;;;;;;5114718;28;21161;-61
2021/10/27 11:57:36;;;;;;;3.00;2.00;;;16.80;1.00;;;;;;5114859;28;20469;-61
2021/10/27 12:00:07;;;;;;;1.70;1.53;;;16.60;1.00;;;;;;5096282;28;20454;-60
2021/10/27 12:11:31;;;;;;;1.90;1.30;;;16.10;1.00;;;;;;5114808;28;20609;-60
2021/10/27 12:14:24;;;;;;;2.90;1.00;;;16.20;1.00;;;;;;5094132;28;20468;-60
2021/10/27 12:19:29;;;;;;;4.40;1.50;;;15.70;1.00;;;;;;5093862;28;20469;-60
2021/10/27 12:22:05;;;;;;;2.30;1.00;;;15.70;1.00;;;;;;5094428;28;20962;-60
2021/10/27 12:24:36;;;;;;;0.97;0.97;;;15.80;1.00;;;;;;5093849;28;20541;-59
2021/10/27 12:27:16;;;;;;;1.23;0.90;;;16.00;1.00;;;;;;5093847;28;20430;-60
2021/10/27 12:29:42;;;;;;;1.60;0.87;;;;;;;;;;5093996;28;20437;-60
2021/10/27 12:32:10;;;;;;;1.10;0.73;;;15.60;1.00;;;;;;5093751;28;20868;-60
2021/10/27 12:34:44;;;;;;;1.43;0.73;;;15.80;1.00;;;;;;5093695;28;20471;-58
2021/10/27 12:37:25;;;;;;;0.70;0.60;;;15.70;1.00;;;;;;5097908;28;20419;-60
2021/10/27 12:39:51;;;;;;;0.87;0.60;;;15.70;1.00;;;;;;5093380;28;20447;-58
2021/10/27 12:42:17;;;;;;;1.70;0.97;;;15.90;1.00;;;;;;5093427;28;20413;-60
2021/10/27 12:44:53;;;;;;;1.27;0.60;;;15.70;1.00;;;;;;5093582;28;20173;-59
2021/10/27 12:47:25;;;;;;;4.00;1.00;;;18.80;1.00;;;;;;5093225;28;20230;-59
2021/10/27 12:50:09;;;;;;;5.60;1.10;;;15.90;1.00;;;;;;5077398;28;20507;-58
2021/10/27 12:52:55;;;;;;;5.33;1.07;;;15.70;1.00;;;;;;5093371;28;20477;-59
2021/10/27 12:55:24;;;;;;;1.20;1.10;;;15.60;1.00;;;;;;5092631;28;20437;-59
2021/10/27 12:57:56;;;;;;;1.60;0.93;;;15.90;1.00;;;;;;5093198;28;20443;-60
2021/10/27 13:08:53;;;;;;;2.10;1.37;;;16.20;1.00;;;;;;5093341;28;20461;-60
2021/10/27 13:30:01;;;;;;;3.00;1.50;;;15.60;1.00;;;;;;5096513;28;20442;-60
2021/10/27 13:32:27;;;;;;;4.97;2.27;;;;;;;;;;5092445;28;20433;-61
2021/10/27 13:34:53;;;;;;;2.00;1.57;;;16.00;1.00;;;;;;5092637;28;20429;-61
2021/10/27 13:37:19;;;;;;;2.40;1.37;;;16.00;1.00;;;;;;5092473;28;20583;-59
2021/10/27 13:39:45;;;;;;;1.50;1.10;;;15.80;1.00;;;;;;5092119;28;20710;-59
2021/10/27 13:42:17;;;;;;;1.60;1.40;;;;;;;;;;5095597;28;20520;-59
2021/10/27 13:44:58;;;;;;;1.83;1.67;;;;;;;;;;5094713;28;20415;-60
2021/10/27 14:06:48;;;;;;;2.60;1.73;;;15.80;1.00;;;;;;5111405;28;20419;-60
2021/10/27 14:09:21;;;;;;;1.97;1.60;;;15.70;1.00;;;;;;5112552;28;20433;-60
2021/10/27 14:12:19;;;;;;;2.53;1.20;;;;;;;;;;5111939;28;20897;-59
2021/10/27 14:15:07;;;;;;;3.70;1.50;;;;;;;;;;5111920;28;20463;-60
2021/10/27 14:17:51;;;;;;;2.43;1.50;;;;;;;;;;5100457;28;20431;-60
2021/10/27 14:39:49;;;;;;;1.53;1.40;;;16.10;1.00;;;;;;5098384;28;20547;-59
2021/10/27 14:48:07;;;;;;;1.60;1.50;;;;;;;;;;5101552;28;20537;-61
2021/10/27 15:20:50;;;;;;;4.23;2.40;;;15.90;1.00;;;;;;5092362;28;20469;-60
2021/10/27 15:23:24;;;;;;;3.70;2.57;;;15.60;1.00;;;;;;5090418;28;20856;-61
2021/10/27 15:26:05;;;;;;;3.10;2.40;;;;;;;;;;5099042;28;20492;-59
2021/10/27 15:28:50;;;;;;;2.83;2.53;;;15.70;1.00;;;;;;5091920;28;20507;-59
2021/10/27 15:32:05;;;;;;;2.40;2.13;;;;;;;;;;5094822;28;20446;-60
2021/10/27 15:45:09;;;;;;;4.10;2.83;;;15.50;1.00;;;;;;5094120;28;20445;-60
2021/10/27 15:52:54;;;;;;;3.13;2.40;;;;;;;;;;5089769;28;20746;-61
2021/10/27 15:55:20;;;;;;;3.03;2.70;;;;;;;;;;5092715;28;20453;-60
2021/10/27 15:57:46;;;;;;;2.87;2.67;;;15.20;1.00;;;;;;5110706;28;20501;-60
2021/10/27 16:00:12;;;;;;;2.80;2.60;;;;;;;;;;5110195;28;20488;-60
2021/10/27 16:02:38;;;;;;;3.47;2.73;;;;;;;;;;5110589;28;20733;-59
2021/10/27 16:05:07;;;;;;;6.33;3.10;;;;;;;;;;5110421;28;20399;-60
2021/10/27 16:07:34;;;;;;;7.43;2.73;;;15.00;1.00;;;;;;5109943;28;20944;-60
2021/10/27 16:10:11;;;;;;;4.00;2.77;;;14.80;1.00;;;;;;5108892;28;20413;-61
2021/10/27 16:12:36;;;;;;;2.73;2.53;;;;;;;;;;5097449;28;20869;-59
2021/10/27 16:15:03;;;;;;;3.00;2.70;;;;;;;;;;5078581;28;20501;-60
2021/10/27 16:17:28;;;;;;;2.87;2.67;;;14.60;1.00;;;;;;5099330;28;20866;-61
2021/10/27 16:19:54;;;;;;;2.83;2.63;;;14.70;1.00;;;;;;5090251;28;20469;-62
2021/10/27 16:22:20;;;;;;;3.20;2.90;;;;;;;;;;5080222;28;20182;-60
2021/10/27 16:24:46;;;;;;;5.17;3.17;;;14.70;1.00;;;;;;5110611;28;20924;-60
2021/10/27 16:27:13;;;;;;;2.93;2.50;;;;;;;;;;5088178;28;20433;-60
2021/10/27 16:29:39;;;;;;;3.47;3.13;;;;;;;;;;5101972;28;20225;-60
2021/10/27 16:32:05;;;;;;;2.67;2.47;;;14.70;1.00;;;;;;5104500;28;20945;-60
2021/10/27 16:34:30;;;;;;;3.17;2.80;;;14.70;1.00;;;;;;5098989;28;20453;-60
2021/10/27 16:36:57;;;;;;;4.03;3.00;;;14.60;1.00;;;;;;5083700;28;20521;-60
2021/10/27 16:39:23;;;;;;;3.53;3.00;;;;;;;;;;5094924;28;20180;-61
2021/10/27 16:41:49;;;;;;;3.13;2.83;;;;;;;;;;5105209;28;20503;-60
2021/10/27 16:44:15;;;;;;;2.57;2.37;;;;;;;;;;5106020;28;20451;-61
2021/10/27 16:46:42;;;;;;;2.90;2.60;;;;;;;;;;5104627;28;21082;-60
2021/10/27 16:49:08;;;;;;;2.50;2.10;;;;;;;;;;5109105;28;20799;-60
2021/10/27 16:51:34;;;;;;;2.63;2.40;;;14.80;1.00;;;;;;5102026;28;20931;-60
2021/10/27 16:54:01;;;;;;;3.27;2.80;;;;;;;;;;5098279;28;20437;-59
2021/10/27 16:56:28;;;;;;;8.93;3.10;;;14.60;1.00;;;;;;5103144;28;20432;-58
2021/10/27 16:58:54;;;;;;;3.73;3.03;;;;;;;;;;5082848;28;20958;-59
2021/10/27 17:01:20;;;;;;;3.80;3.37;;;;;;;;;;5101112;28;20468;-59
2021/10/27 17:03:46;;;;;;;4.57;3.30;;;;;;;;;;5100512;28;20499;-60
2021/10/27 17:06:12;;;;;;;2.80;2.53;;;;;;;;;;5100462;28;20442;-59
2021/10/27 17:08:39;;;;;;;3.83;3.10;;;14.50;1.00;;;;;;5102352;28;21004;-60
2021/10/27 17:11:06;;;;;;;4.73;3.17;;;;;;;;;;5098499;28;20450;-58
2021/10/27 17:13:32;;;;;;;3.83;3.53;;;14.80;1.00;;;;;;5092894;28;20437;-57
2021/10/27 17:15:58;;;;;;;3.77;3.10;;;;;;;;;;5096304;28;20532;-59
2021/10/27 17:18:24;;;;;;;4.03;3.63;;;14.30;1.00;;;;;;5107003;28;20547;-59
2021/10/27 17:20:50;;;;;;;5.10;3.83;;;;;;;;;;5110078;28;20444;-59
2021/10/27 17:23:19;;;;;;;4.10;3.80;;;14.40;1.00;;;;;;5113089;28;20259;-59
2021/10/27 17:25:45;;;;;;;5.10;3.90;;;14.40;1.00;;;;;;5112222;28;20528;-60
2021/10/27 17:28:11;;;;;;;3.83;3.43;;;14.20;1.00;;;;;;5101254;28;20494;-59
2021/10/27 17:30:39;;;;;;;4.93;3.70;;;;;;;;;;5102290;28;20441;-58
2021/10/27 17:33:05;;;;;;;5.47;4.30;;;;;;;;;;5096332;28;20946;-59
2021/10/27 17:35:31;;;;;;;5.17;4.07;;;14.20;1.00;;;;;;5096325;28;20444;-60
2021/10/27 17:37:57;;;;;;;5.03;4.53;;;;;;;;;;5083373;28;20944;-57
2021/10/27 17:42:51;;;;;;;4.90;4.33;;;14.10;1.00;;;;;;5096994;28;20816;-59
2021/10/27 17:45:23;;;;;;;6.27;4.70;;;;;;;;;;5097022;28;20433;-60
2021/10/27 17:48:02;;;;;;;5.20;4.70;;;14.40;1.00;;;;;;5104817;28;20552;-58
2021/10/27 17:50:36;;;;;;;5.83;4.30;;;14.30;1.00;;;;;;5112226;28;20433;-57
2021/10/27 17:58:38;;;;;;;5.27;4.77;;;;;;;;;;5105211;28;20487;-58
2021/10/27 18:01:10;;;;;;;4.77;4.37;;;14.10;1.00;;;;;;5102568;28;20461;-59